createdAt,value
2023-01-21T00:01:55.472Z,17.35
2023-01-21T00:05:58.290Z,20.05
2023-01-21T00:09:59.793Z,15.82
2023-01-21T00:14:01.281Z,16.10
2023-01-21T00:18:02.745Z,22.73
2023-01-21T00:22:04.488Z,14.93
2023-01-21T00:26:07.717Z,20.00
2023-01-21T00:30:10.761Z,17.40
2023-01-21T00:34:12.354Z,16.08
2023-01-21T00:38:13.790Z,18.50
2023-01-21T00:42:15.189Z,16.73
2023-01-21T00:46:16.877Z,18.88
2023-01-21T00:50:18.800Z,12.95
2023-01-21T00:54:20.498Z,24.70
2023-01-21T00:58:21.977Z,20.00
2023-01-21T01:02:23.766Z,13.93
2023-01-21T01:06:25.358Z,14.57
2023-01-21T01:10:26.892Z,14.40
2023-01-21T01:14:28.458Z,15.40
2023-01-21T01:18:33.542Z,13.05
2023-01-21T01:22:35.118Z,25.10
2023-01-21T01:26:36.618Z,15.30
2023-01-21T01:30:38.087Z,10.95
2023-01-21T01:34:39.654Z,24.15
2023-01-21T01:38:41.930Z,19.25
2023-01-21T01:42:43.387Z,10.40
2023-01-21T01:46:44.927Z,10.68
2023-01-21T01:50:48.063Z,14.80
2023-01-21T01:54:55.663Z,17.70
2023-01-21T01:58:57.405Z,14.23
2023-01-21T02:03:34.083Z,13.43
2023-01-21T02:07:40.157Z,19.20
2023-01-21T02:11:41.632Z,17.23
2023-01-21T02:16:15.167Z,19.08
2023-01-21T02:20:45.481Z,18.00
2023-01-21T02:24:52.742Z,20.65
2023-01-21T02:29:19.080Z,21.35
2023-01-21T02:33:26.994Z,23.50
2023-01-21T02:37:52.931Z,19.35
2023-01-21T02:42:06.152Z,19.10
2023-01-21T02:46:19.953Z,21.63
2023-01-21T02:50:52.005Z,19.65
2023-01-21T02:54:59.370Z,23.33
2023-01-21T02:59:05.125Z,24.52
2023-01-21T03:03:22.154Z,19.98
2023-01-21T03:07:29.563Z,23.23
2023-01-21T03:11:31.133Z,19.60
2023-01-21T03:15:57.205Z,16.92
2023-01-21T03:20:04.442Z,18.10
2023-01-21T03:24:06.834Z,21.58
2023-01-21T03:28:13.874Z,20.60
2023-01-21T03:32:18.663Z,19.17
2023-01-21T03:36:37.273Z,20.10
2023-01-21T03:40:44.427Z,21.77
2023-01-21T03:44:47.225Z,19.65
2023-01-21T03:48:48.631Z,22.33
2023-01-21T03:52:50.307Z,17.55
2023-01-21T03:56:51.737Z,23.40
2023-01-21T04:00:53.171Z,22.67
2023-01-21T04:04:54.664Z,17.90
2023-01-21T04:08:56.090Z,21.17
2023-01-21T04:12:57.533Z,21.75
2023-01-21T04:16:58.953Z,22.63
2023-01-21T04:21:00.482Z,15.95
2023-01-21T04:25:01.944Z,16.73
2023-01-21T04:29:03.745Z,21.40
2023-01-21T04:33:05.174Z,20.10
2023-01-21T04:37:06.645Z,15.63
2023-01-21T04:41:08.103Z,15.73
2023-01-21T04:45:10.220Z,16.02
2023-01-21T04:49:11.641Z,11.88
2023-01-21T04:53:13.092Z,13.55
2023-01-21T04:57:14.561Z,13.55
2023-01-21T05:01:16.046Z,14.75
2023-01-21T05:05:17.545Z,12.43
2023-01-21T05:09:18.939Z,10.02
2023-01-21T05:13:20.409Z,13.30
2023-01-21T05:17:21.853Z,10.77
2023-01-21T05:21:23.278Z,10.48
2023-01-21T05:25:24.710Z,11.25
2023-01-21T05:29:26.159Z,12.00
2023-01-21T05:33:35.087Z,10.98
2023-01-21T05:37:36.519Z,11.20
2023-01-21T05:41:38.000Z,11.32
2023-01-21T05:45:39.487Z,12.75
2023-01-21T05:49:40.929Z,14.82
2023-01-21T05:53:42.328Z,8.93
2023-01-21T05:57:43.815Z,10.90
2023-01-21T06:01:45.208Z,10.35
2023-01-21T06:05:49.644Z,15.25
2023-01-21T06:09:51.119Z,16.27
2023-01-21T06:13:52.569Z,11.60
2023-01-21T06:17:54.562Z,12.20
2023-01-21T06:21:56.000Z,11.07
2023-01-21T06:26:01.738Z,12.95
2023-01-21T06:30:06.582Z,12.27
2023-01-21T06:34:09.104Z,13.90
2023-01-21T06:38:10.550Z,14.40
2023-01-21T06:42:11.920Z,16.20
2023-01-21T06:46:13.795Z,18.90
2023-01-21T06:50:17.908Z,16.92
2023-01-21T06:54:19.495Z,18.40
2023-01-21T06:58:20.940Z,16.17
2023-01-21T07:02:22.386Z,15.63
2023-01-21T07:06:23.805Z,17.27
2023-01-21T07:10:25.579Z,15.65
2023-01-21T07:14:27.138Z,19.45
2023-01-21T07:18:28.743Z,16.98
2023-01-21T07:22:30.530Z,17.50
2023-01-21T07:26:36.128Z,13.52
2023-01-21T07:30:37.737Z,18.58
2023-01-21T07:34:39.211Z,19.60
2023-01-21T07:38:40.694Z,37.80
2023-01-21T07:42:42.119Z,19.17
2023-01-21T07:46:43.598Z,18.80
2023-01-21T07:50:45.115Z,23.60
2023-01-21T07:54:47.583Z,22.85
2023-01-21T07:58:49.111Z,23.92
2023-01-21T08:02:51.548Z,17.98
2023-01-21T08:06:56.852Z,20.80
2023-01-21T08:10:58.370Z,19.65
2023-01-21T08:14:59.815Z,20.25
2023-01-21T08:19:01.266Z,17.85
2023-01-21T08:23:02.777Z,21.35
2023-01-21T08:27:04.356Z,21.67
2023-01-21T08:31:09.028Z,21.15
2023-01-21T08:35:10.521Z,20.33
2023-01-21T08:39:16.388Z,19.73
2023-01-21T08:43:17.821Z,17.77
2023-01-21T08:47:19.517Z,22.52
2023-01-21T08:51:21.058Z,18.48
2023-01-21T08:55:26.953Z,18.15
2023-01-21T08:59:30.000Z,16.00
2023-01-21T09:03:31.484Z,18.00
2023-01-21T09:07:32.950Z,19.02
2023-01-21T09:11:34.668Z,16.40
2023-01-21T09:15:39.964Z,17.60
2023-01-21T09:19:41.765Z,16.63
2023-01-21T09:23:44.283Z,16.85
2023-01-21T09:27:45.700Z,16.92
2023-01-21T09:31:47.149Z,20.05
2023-01-21T09:35:57.229Z,18.00
2023-01-21T09:39:58.647Z,17.65
2023-01-21T09:44:22.521Z,19.88
2023-01-21T09:48:32.613Z,14.82
2023-01-21T09:52:40.356Z,14.70
2023-01-21T09:56:56.176Z,18.23
2023-01-21T10:01:15.564Z,19.73
2023-01-21T10:05:25.854Z,19.50
2023-01-21T10:09:32.890Z,15.85
2023-01-21T10:13:41.039Z,15.80
2023-01-21T10:18:03.366Z,14.05
2023-01-21T10:22:31.266Z,15.90
2023-01-21T10:26:34.638Z,15.98
2023-01-21T10:30:43.419Z,21.13
2023-01-21T10:34:51.678Z,19.38
2023-01-21T10:38:58.776Z,16.85
2023-01-21T10:43:07.182Z,17.02
2023-01-21T10:47:30.469Z,20.25
2023-01-21T10:51:45.959Z,15.25
2023-01-21T10:56:35.446Z,17.75
2023-01-21T11:00:47.310Z,17.17
2023-01-21T11:04:49.161Z,20.02
2023-01-21T11:09:00.578Z,22.13
2023-01-21T11:13:02.091Z,15.10
2023-01-21T11:17:03.688Z,15.80
2023-01-21T11:21:20.093Z,19.23
2023-01-21T11:25:24.411Z,13.05
2023-01-21T11:29:26.655Z,14.73
2023-01-21T11:33:28.340Z,15.85
2023-01-21T11:37:31.513Z,13.80
2023-01-21T11:41:33.697Z,12.52
2023-01-21T11:45:36.884Z,14.85
2023-01-21T11:49:47.859Z,11.82
2023-01-21T11:54:06.099Z,13.70
2023-01-21T11:58:23.646Z,13.40
2023-01-21T12:02:33.953Z,15.43
2023-01-21T12:06:37.124Z,12.43
2023-01-21T12:10:44.108Z,13.95
2023-01-21T12:14:57.993Z,13.57
2023-01-21T12:19:16.495Z,12.00
2023-01-21T12:23:30.547Z,11.93
2023-01-21T12:27:50.671Z,15.52
2023-01-21T12:31:56.432Z,18.42
2023-01-21T12:36:20.154Z,10.93
2023-01-21T12:40:31.961Z,10.50
2023-01-21T12:44:43.743Z,10.00
2023-01-21T12:48:52.219Z,18.17
2023-01-21T12:53:15.160Z,25.00
2023-01-21T12:57:25.593Z,8.35
2023-01-21T13:01:42.652Z,10.80
2023-01-21T13:06:15.353Z,8.32
2023-01-21T13:10:38.057Z,11.15
2023-01-21T13:14:42.943Z,8.32
2023-01-21T13:18:51.689Z,9.70
2023-01-21T13:22:56.044Z,8.15
2023-01-21T13:27:26.871Z,9.10
2023-01-21T13:35:36.621Z,6.13
2023-01-21T13:39:51.055Z,15.18
2023-01-21T13:44:14.083Z,7.97
2023-01-21T13:48:15.466Z,6.35
2023-01-21T13:52:31.622Z,6.22
2023-01-21T13:56:39.505Z,7.60
2023-01-21T14:00:56.064Z,8.30
2023-01-21T14:05:03.549Z,9.85
2023-01-21T14:09:13.713Z,5.43
2023-01-21T14:13:42.461Z,7.10
2023-01-21T14:18:12.750Z,9.60
2023-01-21T14:22:41.045Z,5.47
2023-01-21T14:26:57.598Z,6.97
2023-01-21T14:31:21.460Z,7.07
2023-01-21T14:35:34.016Z,4.78
2023-01-21T14:40:15.208Z,7.38
2023-01-21T14:48:41.420Z,5.20
2023-01-21T14:52:46.080Z,6.50
2023-01-21T14:57:18.172Z,5.68
2023-01-21T15:01:29.784Z,4.32
2023-01-21T15:05:36.993Z,2.30
2023-01-21T15:09:47.061Z,3.03
2023-01-21T15:14:03.571Z,3.63
2023-01-21T15:18:34.053Z,3.70
2023-01-21T15:22:40.888Z,2.88
2023-01-21T15:27:03.200Z,4.97
2023-01-21T15:31:08.265Z,4.80
2023-01-21T15:35:30.315Z,2.85
2023-01-21T15:39:34.041Z,3.67
2023-01-21T15:43:45.081Z,7.20
2023-01-21T15:47:46.587Z,4.15
2023-01-21T15:52:09.728Z,5.70
2023-01-21T15:56:32.626Z,4.55
2023-01-21T16:00:53.486Z,6.82
2023-01-21T16:05:06.702Z,5.20
2023-01-21T16:09:11.250Z,4.60
2023-01-21T16:13:36.143Z,3.63
2023-01-21T16:17:52.817Z,6.60
2023-01-21T16:21:59.669Z,13.93
2023-01-21T16:26:02.372Z,7.70
2023-01-21T16:30:12.866Z,4.78
2023-01-21T16:34:14.489Z,3.42
2023-01-21T16:38:21.722Z,9.48
2023-01-21T16:42:37.962Z,5.70
2023-01-21T16:46:40.637Z,7.47
2023-01-21T16:50:48.138Z,9.32
2023-01-21T16:54:52.801Z,9.27
2023-01-21T16:58:55.962Z,9.82
2023-01-21T17:02:58.849Z,5.22
2023-01-21T17:07:00.528Z,5.70
2023-01-21T17:11:10.403Z,4.95
2023-01-21T17:19:42.653Z,5.60
2023-01-21T17:23:52.694Z,7.55
2023-01-21T17:27:55.441Z,4.15
2023-01-21T17:32:25.754Z,4.85
2023-01-21T17:36:37.169Z,8.48
2023-01-21T17:41:03.775Z,4.50
2023-01-21T17:45:06.480Z,5.57
2023-01-21T17:49:15.133Z,10.23
2023-01-21T17:53:24.744Z,5.13
2023-01-21T17:57:34.845Z,11.80
2023-01-21T18:01:36.337Z,7.82
2023-01-21T18:05:40.898Z,10.00
2023-01-21T18:09:42.539Z,5.97
2023-01-21T18:13:44.099Z,9.65
2023-01-21T18:17:48.152Z,6.80
2023-01-21T18:21:49.608Z,10.13
2023-01-21T18:25:54.639Z,7.80
2023-01-21T18:29:57.067Z,7.60
2023-01-21T18:33:58.627Z,11.70
2023-01-21T18:38:00.151Z,9.38
2023-01-21T18:42:01.748Z,10.00
2023-01-21T18:46:03.445Z,8.32
2023-01-21T18:50:05.463Z,6.63
2023-01-21T18:54:07.625Z,7.88
2023-01-21T18:58:14.148Z,7.72
2023-01-21T19:02:18.737Z,9.60
2023-01-21T19:06:22.850Z,9.95
2023-01-21T19:10:24.302Z,8.07
2023-01-21T19:14:25.770Z,10.55
2023-01-21T19:18:27.432Z,5.97
2023-01-21T19:22:28.968Z,8.45
2023-01-21T19:26:30.899Z,6.30
2023-01-21T19:30:33.090Z,9.70
2023-01-21T19:34:34.501Z,5.53
2023-01-21T19:38:36.154Z,5.93
2023-01-21T19:42:38.453Z,8.07
2023-01-21T19:46:40.616Z,8.02
2023-01-21T19:50:42.460Z,8.15
2023-01-21T19:54:44.143Z,8.15
2023-01-21T19:58:45.678Z,10.43
2023-01-21T20:02:47.332Z,5.45
2023-01-21T20:06:48.806Z,5.07
2023-01-21T20:10:50.508Z,8.93
2023-01-21T20:14:52.007Z,6.85
2023-01-21T20:18:55.274Z,9.23
2023-01-21T20:22:57.528Z,9.98
2023-01-21T20:27:00.504Z,6.43
2023-01-21T20:31:07.973Z,10.13
2023-01-21T20:35:10.141Z,8.57
2023-01-21T20:39:13.362Z,8.13
2023-01-21T20:43:16.095Z,10.73
2023-01-21T20:47:32.528Z,6.63
2023-01-21T20:55:44.999Z,5.93
2023-01-21T20:59:46.545Z,8.27
2023-01-21T21:03:49.007Z,6.15
2023-01-21T21:07:51.172Z,6.00
2023-01-21T21:11:52.725Z,6.40
2023-01-21T21:15:54.325Z,5.88
2023-01-21T21:19:55.804Z,7.90
2023-01-21T21:23:57.265Z,6.68
2023-01-21T21:27:58.783Z,6.32
2023-01-21T21:32:02.283Z,10.52
2023-01-21T21:36:04.028Z,6.95
2023-01-21T21:40:06.307Z,11.35
2023-01-21T21:44:09.179Z,8.73
2023-01-21T21:48:39.206Z,5.15
2023-01-21T21:52:40.660Z,6.47
2023-01-21T21:56:42.947Z,9.25
2023-01-21T22:00:44.741Z,6.53
2023-01-21T22:04:46.285Z,7.72
2023-01-21T22:08:48.665Z,9.23
2023-01-21T22:12:50.184Z,7.93
2023-01-21T22:16:51.997Z,8.35
2023-01-21T22:21:00.437Z,7.93
2023-01-21T22:25:01.996Z,7.47
2023-01-21T22:29:05.072Z,6.55
2023-01-21T22:33:07.532Z,6.22
2023-01-21T22:37:08.966Z,8.38
2023-01-21T22:41:15.193Z,12.95
2023-01-21T22:45:19.216Z,6.20
2023-01-21T22:49:22.215Z,5.15
2023-01-21T22:53:24.194Z,9.40
2023-01-21T22:57:25.670Z,5.60
2023-01-21T23:01:31.558Z,8.73
2023-01-21T23:05:35.181Z,5.47
2023-01-21T23:09:36.708Z,9.73
2023-01-21T23:13:38.336Z,7.55
2023-01-21T23:17:39.873Z,5.97
2023-01-21T23:21:41.426Z,8.85
2023-01-21T23:25:44.605Z,8.75
2023-01-21T23:29:46.165Z,5.70
2023-01-21T23:33:52.116Z,6.78
2023-01-21T23:37:53.682Z,5.63
2023-01-21T23:41:55.231Z,6.50
2023-01-21T23:45:56.986Z,6.22
2023-01-21T23:49:58.698Z,8.60
2023-01-21T23:54:01.956Z,5.07
2023-01-21T23:58:03.694Z,7.68
